createdAt,value
2022-09-27T00:00:02.669Z,11.9
2022-09-27T00:20:03.248Z,11.8
2022-09-27T00:40:02.560Z,11.7
2022-09-27T01:00:02.969Z,11.7
2022-09-27T01:20:02.603Z,11.7
2022-09-27T01:40:03.041Z,11.6
2022-09-27T02:00:02.305Z,11.6
2022-09-27T02:20:03.136Z,11.7
2022-09-27T02:40:02.422Z,11.8
2022-09-27T03:00:02.836Z,11.9
2022-09-27T03:20:02.696Z,11.9
2022-09-27T03:40:02.985Z,11.9
2022-09-27T04:00:02.550Z,11.8
2022-09-27T04:20:02.170Z,11.7
2022-09-27T04:40:02.619Z,11.7
2022-09-27T05:00:03.048Z,11.6
2022-09-27T05:20:02.727Z,11.6
2022-09-27T05:40:12.159Z,11.6
2022-09-27T06:00:02.698Z,11.6
2022-09-27T06:20:02.139Z,11.6
2022-09-27T06:40:02.534Z,11.6
2022-09-27T07:00:03.078Z,11.6
2022-09-27T07:20:02.492Z,11.6
2022-09-27T07:40:03.073Z,11.6
2022-09-27T08:00:02.394Z,11.9
2022-09-27T08:20:03.057Z,11.8
2022-09-27T08:40:02.581Z,11.9
2022-09-27T09:00:02.892Z,11.9
2022-09-27T09:20:02.262Z,12
2022-09-27T09:40:06.762Z,12.2
2022-09-27T10:00:02.889Z,12.5
2022-09-27T10:20:02.654Z,12.9
2022-09-27T10:40:03.114Z,13.2
2022-09-27T11:00:02.348Z,13.1
2022-09-27T11:20:03.189Z,14.3
2022-09-27T11:40:02.549Z,14.4
2022-09-27T12:00:02.801Z,14.8
2022-09-27T12:20:02.235Z,14.3
2022-09-27T12:40:03.050Z,12.8
2022-09-27T13:00:02.323Z,11.7
2022-09-27T13:20:02.971Z,11.8
2022-09-27T13:40:02.436Z,12.4
2022-09-27T14:00:02.640Z,12.7
2022-09-27T14:20:02.200Z,12.7
2022-09-27T14:40:03.722Z,12.6
2022-09-27T15:00:03.418Z,12.4
2022-09-27T15:20:02.844Z,12.6
2022-09-27T15:40:02.265Z,12.4
2022-09-27T16:00:02.658Z,12.3
2022-09-27T16:20:02.238Z,12.2
2022-09-27T16:40:02.701Z,11.9
2022-09-27T17:00:03.161Z,11.7
2022-09-27T17:20:02.520Z,11.6
2022-09-27T17:40:02.798Z,11.5
2022-09-27T18:00:02.197Z,11.2
2022-09-27T18:20:02.763Z,11
2022-09-27T18:40:03.085Z,10.7
2022-09-27T19:00:02.479Z,10.7
2022-09-27T19:20:02.154Z,10.5
2022-09-27T19:40:02.583Z,10.4
2022-09-27T20:00:02.829Z,10.2
2022-09-27T20:20:02.172Z,10.1
2022-09-27T20:40:02.636Z,10
2022-09-27T21:00:02.868Z,9.7
2022-09-27T21:20:02.358Z,9.5
2022-09-27T21:40:02.868Z,9.4
2022-09-27T22:00:02.286Z,9.4
2022-09-27T22:20:02.961Z,9.5
2022-09-27T22:40:02.243Z,9.3
2022-09-27T23:00:02.603Z,9.2
2022-09-27T23:20:02.504Z,8.8
2022-09-27T23:40:02.664Z,8.7
